This is the latest recevied weather packets stored in our database for station/object W5HKR. If no packets are shown the sender has not sent any weather packets the latest 10 day(s).
| Time | Temp. | Humidity | Pressure | Rain* | Wind** | Luminosity | Snow |
|---|---|---|---|---|---|---|---|
| 1778101705 | 18.33° C | 91% | 990.6 hPa | 0 mm | - | - | - |
| 1778101405 | 29.44° C | 69% | 981.4 hPa | 0 mm | - | - | - |
| 1778101103 | 29.44° C | 67% | 981.1 hPa | 0 mm | - | - | - |
| 1778100803 | 29.44° C | 69% | 980.8 hPa | 0 mm | - | - | - |
| 1778100715 | 18.33° C | 91% | 990.6 hPa | 0 mm | - | - | - |
| 1778100503 | 29.44° C | 68% | 981.4 hPa | 0 mm | - | - | - |
| 1778100204 | 18.33° C | 91% | 990.6 hPa | 0 mm | - | - | - |
| 1778099904 | 30° C | 69% | 981.4 hPa | 0 mm | - | - | - |
| 1778099635 | 30° C | 67% | 981 hPa | 0 mm | - | - | - |
| 1778099604 | 30° C | 67% | 981 hPa | 0 mm | - | - | - |
| 1778099304 | 18.33° C | 91% | 990.6 hPa | 0 mm | - | - | - |
| 1778099005 | 30.56° C | 64% | 981.2 hPa | 0 mm | - | - | - |
| 1778098703 | 31.11° C | 66% | 981.7 hPa | 0 mm | - | - | - |
| 1778098554 | 18.33° C | 91% | 990.6 hPa | 0 mm | - | - | - |
| 1778098104 | 18.33° C | 91% | 990.6 hPa | 0 mm | - | - | - |
| 1778097804 | 30.56° C | 62% | 981.4 hPa | 0 mm | - | - | - |
| 1778097474 | 18.33° C | 91% | 990.6 hPa | 0 mm | - | - | - |
| 1778097204 | 18.33° C | 91% | 990.6 hPa | 0 mm | - | - | - |
| 1778096905 | 18.33° C | 91% | 990.6 hPa | 0 mm | - | - | - |
| 1778096605 | 30.56° C | 64% | 981.4 hPa | 0 mm | - | - | - |
| 1778096394 | 18.33° C | 91% | 990.6 hPa | 0 mm | - | - | - |
| 1778096305 | 30° C | 65% | 981.6 hPa | 0 mm | - | - | - |
| 1778096004 | 18.33° C | 91% | 990.6 hPa | 0 mm | - | - | - |
| 1778095704 | 30° C | 67% | 982 hPa | 0 mm | - | - | - |
| 1778095405 | 18.33° C | 91% | 990.6 hPa | 0 mm | - | - | - |
* Rain latest hour (hover to see other rain measurements)
** Current wind speed in m/s (hover to see current wind gust speed)